Time;durP1;ratioP1;P1;durP2;ratioP2;P2;SDS_P1;SDS_P2;PMS_P1;PMS_P2;Temp;Humidity;BMP_temperature;BMP_pressure;BME280_temperature;BME280_humidity;BME280_pressure;Samples;Min_cycle;Max_cycle;Signal;HPM_P1;HPM_P2
2022/01/14 00:01:19;;;;;;;64.55;23.08;;;6.30;99.90;;;;;;5031613;28;20042;-65
2022/01/14 00:03:45;;;;;;;59.95;20.73;;;6.20;99.90;;;;;;5015319;28;20030;-65
2022/01/14 00:06:11;;;;;;;56.10;20.02;;;6.30;99.90;;;;;;5031688;28;20044;-64
2022/01/14 00:08:37;;;;;;;53.58;19.58;;;6.40;99.90;;;;;;5031577;28;20176;-64
2022/01/14 00:11:03;;;;;;;55.05;20.73;;;6.40;99.90;;;;;;5031726;28;20046;-64
2022/01/14 00:13:49;;;;;;;60.70;20.42;;;6.30;99.90;;;;;;5032826;28;20048;-64
2022/01/14 00:16:15;;;;;;;49.55;20.15;;;6.40;99.90;;;;;;5018184;28;20049;-65
2022/01/14 00:18:41;;;;;;;62.03;21.27;;;6.30;99.90;;;;;;5032999;28;20037;-64
2022/01/14 00:21:06;;;;;;;54.72;21.35;;;6.50;99.90;;;;;;5031592;28;20132;-64
2022/01/14 00:23:37;;;;;;;72.60;23.80;;;6.40;99.90;;;;;;5031894;28;20079;-64
2022/01/14 00:34:07;;;;;;;48.55;18.83;;;;;;;;;;5031637;28;20056;-64
2022/01/14 00:36:32;;;;;;;50.22;18.48;;;6.40;99.90;;;;;;5015402;28;20072;-64
2022/01/14 00:38:59;;;;;;;40.53;17.27;;;;;;;;;;5030953;28;20057;-64
2022/01/14 00:41:26;;;;;;;47.28;18.75;;;;;;;;;;5031408;28;20057;-64
2022/01/14 00:43:58;;;;;;;43.55;18.83;;;6.40;99.90;;;;;;5031426;28;20084;-64
2022/01/14 00:46:24;;;;;;;45.72;17.90;;;;;;;;;;5031840;28;20045;-63
2022/01/14 00:48:50;;;;;;;41.40;17.65;;;;;;;;;;5031265;28;20377;-64
2022/01/14 00:51:16;;;;;;;37.85;16.58;;;6.40;99.90;;;;;;5016581;28;20045;-64
2022/01/14 00:53:42;;;;;;;44.97;18.63;;;6.50;99.90;;;;;;5035315;28;20042;-64
2022/01/14 00:56:20;;;;;;;50.55;18.63;;;6.40;99.90;;;;;;5018865;28;20045;-64
2022/01/14 01:01:31;;;;;;;52.85;17.55;;;6.40;99.90;;;;;;5036405;28;20053;-64
2022/01/14 01:03:56;;;;;;;35.00;17.83;;;6.40;99.90;;;;;;5034979;28;20086;-64
2022/01/14 01:06:22;;;;;;;38.35;17.23;;;6.30;99.90;;;;;;5036301;28;20042;-64
2022/01/14 01:08:50;;;;;;;40.70;17.10;;;6.50;99.90;;;;;;5034872;28;20048;-64
2022/01/14 01:11:23;;;;;;;50.28;18.25;;;6.50;99.90;;;;;;5035073;28;20064;-64
2022/01/14 01:13:58;;;;;;;35.78;17.20;;;6.50;99.90;;;;;;5034648;28;20120;-64
2022/01/14 01:16:23;;;;;;;37.53;16.95;;;6.40;99.90;;;;;;5035966;28;20116;-64
2022/01/14 01:18:49;;;;;;;44.53;16.77;;;;;;;;;;5034448;28;20541;-64
2022/01/14 01:21:15;;;;;;;39.25;16.92;;;6.50;99.90;;;;;;5034597;28;20042;-64
2022/01/14 01:23:40;;;;;;;38.22;17.20;;;6.50;99.90;;;;;;5030665;28;20404;-64
2022/01/14 01:26:14;;;;;;;36.83;17.00;;;6.40;99.90;;;;;;5014853;28;20427;-64
2022/01/14 01:28:56;;;;;;;39.10;17.48;;;;;;;;;;5014700;28;20037;-64
2022/01/14 01:31:40;;;;;;;45.17;19.20;;;6.50;99.90;;;;;;5014618;28;20057;-64
2022/01/14 01:34:18;;;;;;;41.85;20.00;;;6.30;99.90;;;;;;4998513;28;20042;-64
2022/01/14 01:36:46;;;;;;;44.20;19.33;;;6.50;99.90;;;;;;5014577;28;20057;-64
2022/01/14 01:39:17;;;;;;;46.72;19.80;;;6.40;99.90;;;;;;4998118;28;20061;-64
2022/01/14 01:41:46;;;;;;;37.95;19.15;;;6.40;99.90;;;;;;5035908;28;20041;-64
2022/01/14 01:44:13;;;;;;;45.42;19.67;;;6.60;99.90;;;;;;5054033;28;20037;-64
2022/01/14 01:46:42;;;;;;;38.50;19.40;;;6.60;99.90;;;;;;5040704;28;20045;-64
2022/01/14 01:49:09;;;;;;;41.28;18.77;;;6.70;99.90;;;;;;5034025;28;20124;-64
2022/01/14 01:51:35;;;;;;;41.63;17.75;;;;;;;;;;5035101;28;20047;-64
2022/01/14 01:54:01;;;;;;;42.70;18.67;;;6.50;99.90;;;;;;5017655;28;20400;-64
2022/01/14 01:56:27;;;;;;;36.95;16.77;;;6.40;99.90;;;;;;5035421;28;20044;-64
2022/01/14 01:58:56;;;;;;;38.03;19.00;;;;;;;;;;5033930;28;20053;-64
2022/01/14 02:01:23;;;;;;;41.67;20.38;;;6.50;99.90;;;;;;5034777;28;20045;-64
2022/01/14 02:03:49;;;;;;;39.88;18.30;;;6.50;99.90;;;;;;5033898;28;20132;-64
2022/01/14 02:06:15;;;;;;;39.90;18.90;;;6.50;99.90;;;;;;5034890;28;20039;-64
2022/01/14 02:08:41;;;;;;;43.33;19.05;;;6.50;99.90;;;;;;5033994;28;20112;-64
2022/01/14 02:11:06;;;;;;;37.28;18.35;;;6.50;99.90;;;;;;5017128;28;20037;-64
2022/01/14 02:13:32;;;;;;;36.13;18.30;;;6.50;99.90;;;;;;5035113;28;20079;-63
2022/01/14 02:19:00;;;;;;;36.78;18.65;;;;;;;;;;5034976;28;20052;-64
2022/01/14 02:26:53;;;;;;;41.42;20.38;;;6.40;99.90;;;;;;5034785;28;20037;-64
2022/01/14 02:29:22;;;;;;;36.75;20.15;;;6.50;99.90;;;;;;5034570;28;20037;-64
2022/01/14 02:31:49;;;;;;;37.47;18.90;;;6.60;99.90;;;;;;5032526;28;20052;-64
2022/01/14 02:34:15;;;;;;;41.90;21.13;;;6.60;99.90;;;;;;5006009;28;20453;-64
2022/01/14 02:36:43;;;;;;;41.30;19.30;;;6.40;99.90;;;;;;5013569;28;20049;-64
2022/01/14 02:39:11;;;;;;;41.75;20.00;;;6.60;99.90;;;;;;5025663;28;20125;-63
2022/01/14 02:41:40;;;;;;;41.97;19.73;;;6.50;99.90;;;;;;5034207;28;20060;-64
2022/01/14 02:44:09;;;;;;;42.13;20.85;;;6.40;99.90;;;;;;5034573;28;20037;-64
2022/01/14 02:46:49;;;;;;;52.10;21.58;;;6.40;99.90;;;;;;5016466;28;20116;-64
2022/01/14 02:49:14;;;;;;;47.05;21.17;;;6.40;99.90;;;;;;5034219;28;20056;-64
2022/01/14 02:51:40;;;;;;;42.75;21.30;;;6.50;99.90;;;;;;5033090;28;20037;-64
2022/01/14 02:54:15;;;;;;;42.53;20.83;;;6.50;99.90;;;;;;5016725;28;20045;-65
2022/01/14 02:56:47;;;;;;;33.45;18.92;;;6.40;99.90;;;;;;5016400;28;20056;-64
2022/01/14 02:59:13;;;;;;;45.78;20.40;;;;;;;;;;5032941;28;20033;-64
2022/01/14 03:01:40;;;;;;;38.42;22.08;;;6.20;99.90;;;;;;5034272;28;20096;-64
2022/01/14 03:04:07;;;;;;;44.20;20.27;;;6.40;99.90;;;;;;5033913;28;20407;-64
2022/01/14 03:06:33;;;;;;;37.67;19.75;;;6.30;99.90;;;;;;5033907;28;20033;-64
2022/01/14 03:08:59;;;;;;;40.67;20.48;;;6.40;99.90;;;;;;5015949;28;20072;-64
2022/01/14 03:11:35;;;;;;;42.63;20.83;;;6.30;99.90;;;;;;5034097;28;20069;-64
2022/01/14 03:14:01;;;;;;;;;;;6.30;99.90;;;;;;5033535;28;20041;-64
2022/01/14 03:16:27;;;;;;;37.85;18.80;;;6.40;99.90;;;;;;5033796;28;19974;-64
2022/01/14 03:19:03;;;;;;;47.55;21.08;;;6.20;99.90;;;;;;5033815;28;20037;-64
2022/01/14 03:21:36;;;;;;;34.22;18.58;;;6.30;99.90;;;;;;5033487;28;20487;-64
2022/01/14 03:24:05;;;;;;;45.40;20.50;;;6.30;99.90;;;;;;5033540;28;20045;-64
2022/01/14 03:26:31;;;;;;;43.67;20.70;;;6.20;99.90;;;;;;5016069;28;20444;-64
2022/01/14 03:28:57;;;;;;;37.78;20.20;;;6.20;99.90;;;;;;5033337;28;20033;-64
2022/01/14 03:31:23;;;;;;;37.25;19.08;;;6.20;99.90;;;;;;5016037;28;20052;-64
2022/01/14 03:33:48;;;;;;;32.00;17.88;;;6.30;99.90;;;;;;5033375;28;20037;-64
2022/01/14 03:36:14;;;;;;;40.53;18.27;;;6.20;99.90;;;;;;5015656;28;20091;-64
2022/01/14 03:38:39;;;;;;;38.72;18.75;;;6.40;99.90;;;;;;5033242;28;20060;-64
2022/01/14 03:41:06;;;;;;;37.53;17.73;;;6.20;99.90;;;;;;5015502;28;20458;-64
2022/01/14 03:43:32;;;;;;;44.25;19.33;;;6.20;99.90;;;;;;5033301;28;20056;-64
2022/01/14 03:45:58;;;;;;;37.38;17.98;;;6.10;99.90;;;;;;5015808;28;20041;-64
2022/01/14 03:48:24;;;;;;;36.90;19.60;;;6.30;99.90;;;;;;5015639;28;20518;-64
2022/01/14 03:50:49;;;;;;;39.95;17.98;;;6.00;99.90;;;;;;5033080;28;20543;-64
2022/01/14 03:53:15;;;;;;;39.10;19.70;;;6.30;99.90;;;;;;5033190;28;20450;-64
2022/01/14 03:55:43;;;;;;;33.83;17.30;;;6.20;99.90;;;;;;5015502;28;20049;-64
2022/01/14 03:58:09;;;;;;;43.33;17.55;;;6.20;99.90;;;;;;4999482;28;20044;-65
2022/01/14 04:00:36;;;;;;;35.25;17.65;;;6.20;99.90;;;;;;5033096;28;20041;-64
2022/01/14 04:03:03;;;;;;;37.70;18.80;;;6.30;99.90;;;;;;5015252;28;20045;-64
2022/01/14 04:05:28;;;;;;;31.83;16.33;;;6.20;99.90;;;;;;5032933;28;20033;-64
2022/01/14 04:07:54;;;;;;;39.58;17.95;;;6.10;99.90;;;;;;5015440;28;20048;-64
2022/01/14 04:10:21;;;;;;;39.22;18.70;;;6.20;99.90;;;;;;5015536;28;20509;-64
2022/01/14 04:12:56;;;;;;;34.53;17.25;;;6.30;99.90;;;;;;5015209;28;20526;-64
2022/01/14 04:15:37;;;;;;;37.65;18.45;;;6.30;99.90;;;;;;5015287;28;20048;-64
2022/01/14 04:18:06;;;;;;;43.50;19.15;;;6.40;99.90;;;;;;5032839;28;20041;-64
2022/01/14 04:20:32;;;;;;;37.25;19.77;;;6.40;99.90;;;;;;5015265;28;20080;-64
2022/01/14 04:22:58;;;;;;;36.70;18.17;;;6.20;99.90;;;;;;5033042;28;20076;-64
2022/01/14 04:25:24;;;;;;;33.83;18.73;;;6.30;99.90;;;;;;5016988;28;20103;-64
2022/01/14 04:27:50;;;;;;;38.03;20.08;;;;;;;;;;5002679;28;20045;-64
2022/01/14 04:30:17;;;;;;;41.97;19.65;;;6.30;99.90;;;;;;5019087;28;20049;-64
2022/01/14 04:32:42;;;;;;;37.97;20.45;;;6.20;99.90;;;;;;5018855;28;20045;-64
2022/01/14 04:35:08;;;;;;;40.75;19.65;;;6.20;99.90;;;;;;5019133;28;20049;-64
2022/01/14 04:37:35;;;;;;;39.55;20.02;;;6.10;99.90;;;;;;5036599;28;20038;-64
2022/01/14 04:40:00;;;;;;;37.38;18.80;;;6.10;99.90;;;;;;5017078;28;20049;-65
2022/01/14 04:42:27;;;;;;;40.80;20.13;;;6.10;99.90;;;;;;5035438;28;20104;-64
2022/01/14 04:44:55;;;;;;;36.65;18.55;;;;;;;;;;5036580;28;20045;-64
2022/01/14 04:50:18;;;;;;;38.75;18.58;;;6.10;99.90;;;;;;5022437;28;20053;-64
2022/01/14 04:52:45;;;;;;;35.35;19.55;;;6.10;99.90;;;;;;5036534;28;20049;-64
2022/01/14 04:55:12;;;;;;;30.90;17.85;;;6.10;99.90;;;;;;5036371;28;20130;-64
2022/01/14 04:57:39;;;;;;;39.85;19.70;;;6.10;99.90;;;;;;5036272;28;20037;-64
2022/01/14 05:00:11;;;;;;;36.08;18.35;;;6.00;99.90;;;;;;5036551;28;20042;-64
2022/01/14 05:02:37;;;;;;;40.75;19.10;;;;;;;;;;5018591;28;20037;-64
2022/01/14 05:05:07;;;;;;;38.45;19.13;;;6.20;99.90;;;;;;5034995;28;20099;-64
2022/01/14 05:07:33;;;;;;;37.40;18.80;;;6.10;99.90;;;;;;5018244;28;20091;-64
2022/01/14 05:12:29;;;;;;;36.53;18.90;;;6.00;99.90;;;;;;5036277;28;20134;-64
2022/01/14 05:14:55;;;;;;;36.40;18.10;;;;;;;;;;5045831;28;20514;-64
2022/01/14 05:17:20;;;;;;;31.23;17.17;;;6.20;99.90;;;;;;5054586;28;20080;-64
2022/01/14 05:19:46;;;;;;;37.95;17.52;;;6.10;99.90;;;;;;5052416;28;20143;-64
2022/01/14 05:22:12;;;;;;;34.15;18.73;;;6.10;99.90;;;;;;5030517;28;20034;-64
2022/01/14 05:24:38;;;;;;;35.03;17.58;;;;;;;;;;5024710;28;20025;-64
2022/01/14 05:27:04;;;;;;;38.30;19.08;;;6.40;99.90;;;;;;5049781;28;20045;-64
2022/01/14 05:29:30;;;;;;;38.05;17.00;;;6.20;99.90;;;;;;5034570;28;20480;-64
2022/01/14 05:32:02;;;;;;;34.80;16.70;;;6.20;99.90;;;;;;5034447;28;20087;-64
2022/01/14 05:34:29;;;;;;;34.40;18.58;;;6.20;99.90;;;;;;5034549;28;20056;-65
2022/01/14 05:36:54;;;;;;;34.30;17.25;;;6.10;99.90;;;;;;5017288;28;20072;-65
2022/01/14 05:39:20;;;;;;;32.17;17.73;;;6.30;99.90;;;;;;5048956;28;20495;-64
2022/01/14 05:41:50;;;;;;;32.78;17.27;;;6.20;99.90;;;;;;5023186;28;20045;-64
2022/01/14 05:44:16;;;;;;;33.72;18.23;;;;;;;;;;5044089;28;20180;-64
2022/01/14 05:46:42;;;;;;;31.90;17.17;;;6.20;99.90;;;;;;5048418;28;20103;-65
2022/01/14 05:49:07;;;;;;;32.20;17.33;;;6.20;99.90;;;;;;5051708;28;20045;-64
2022/01/14 05:51:33;;;;;;;33.90;17.83;;;6.20;99.90;;;;;;5043852;28;20040;-64
2022/01/14 05:53:59;;;;;;;32.53;18.00;;;6.20;99.90;;;;;;5034301;28;20411;-64
2022/01/14 05:56:25;;;;;;;32.10;17.50;;;6.00;99.90;;;;;;5035325;28;20037;-64
2022/01/14 05:58:51;;;;;;;34.72;17.42;;;;;;;;;;5035496;28;20059;-64
2022/01/14 06:01:16;;;;;;;31.60;16.48;;;6.10;99.90;;;;;;5017440;28;20053;-65
2022/01/14 06:03:42;;;;;;;31.17;17.10;;;6.20;99.90;;;;;;5033890;28;20042;-64
2022/01/14 06:06:07;;;;;;;31.33;17.58;;;6.10;99.90;;;;;;5035181;28;20033;-64
2022/01/14 06:08:33;;;;;;;35.90;17.35;;;6.00;99.90;;;;;;5033727;28;20106;-64
2022/01/14 06:10:59;;;;;;;35.10;18.08;;;;;;;;;;5035057;28;20041;-65
2022/01/14 06:13:25;;;;;;;37.72;17.90;;;6.30;99.90;;;;;;5033793;28;20045;-65
2022/01/14 06:15:50;;;;;;;26.30;15.90;;;6.10;99.90;;;;;;5035444;28;20081;-64
2022/01/14 06:18:16;;;;;;;34.22;16.63;;;6.20;99.90;;;;;;5054660;28;20029;-64
2022/01/14 06:20:42;;;;;;;29.85;18.00;;;6.20;99.90;;;;;;5053464;28;20045;-64
2022/01/14 06:23:08;;;;;;;34.78;17.30;;;6.10;99.90;;;;;;5052751;28;20040;-63
2022/01/14 06:25:34;;;;;;;36.10;17.63;;;6.10;99.90;;;;;;5053475;28;20063;-64
2022/01/14 06:28:00;;;;;;;36.17;18.27;;;6.10;99.90;;;;;;5047658;28;20491;-63
2022/01/14 06:30:25;;;;;;;33.70;17.45;;;6.10;99.90;;;;;;5045563;28;20057;-64
2022/01/14 06:32:52;;;;;;;27.10;16.85;;;6.20;99.90;;;;;;5033265;28;20119;-63
2022/01/14 06:35:18;;;;;;;39.28;17.67;;;6.00;99.90;;;;;;5050414;28;20063;-63
2022/01/14 06:37:44;;;;;;;36.90;18.30;;;6.20;99.90;;;;;;5054318;28;20502;-63
2022/01/14 06:40:10;;;;;;;33.65;17.85;;;;;;;;;;5052754;28;20444;-64
2022/01/14 06:42:36;;;;;;;29.98;17.33;;;6.10;99.90;;;;;;5053505;28;20128;-63
2022/01/14 06:45:03;;;;;;;36.45;18.98;;;6.10;99.90;;;;;;5054139;28;20035;-64
2022/01/14 06:47:29;;;;;;;32.88;18.88;;;6.20;99.90;;;;;;5036387;28;20045;-63
2022/01/14 06:49:55;;;;;;;40.20;20.70;;;6.10;99.90;;;;;;5052836;28;20111;-63
2022/01/14 06:52:21;;;;;;;34.75;17.48;;;6.20;99.90;;;;;;5034954;28;20044;-64
2022/01/14 06:54:47;;;;;;;39.65;19.52;;;6.10;99.90;;;;;;5032567;28;20384;-64
2022/01/14 06:57:13;;;;;;;34.17;18.77;;;6.20;99.90;;;;;;5032802;28;20076;-63
2022/01/14 06:59:39;;;;;;;28.77;17.67;;;6.30;99.90;;;;;;5016821;28;20483;-64
2022/01/14 07:02:04;;;;;;;32.83;19.40;;;6.30;99.90;;;;;;5012572;28;20447;-64
2022/01/14 07:04:30;;;;;;;35.45;17.88;;;6.30;99.90;;;;;;5039839;28;20043;-63
2022/01/14 07:06:55;;;;;;;46.22;18.65;;;6.30;99.90;;;;;;5032555;28;20048;-64
2022/01/14 07:09:21;;;;;;;33.80;17.50;;;6.30;99.90;;;;;;5032706;28;20057;-64
2022/01/14 07:11:52;;;;;;;29.55;18.08;;;6.40;99.90;;;;;;5055537;28;20136;-64
2022/01/14 07:14:18;;;;;;;37.67;18.83;;;;;;;;;;5030412;28;20052;-64
2022/01/14 07:16:44;;;;;;;38.47;18.00;;;6.40;99.90;;;;;;5032544;28;20503;-64
2022/01/14 07:19:09;;;;;;;35.63;18.17;;;6.40;99.90;;;;;;5052505;28;20115;-63
2022/01/14 07:21:35;;;;;;;34.97;19.00;;;;;;;;;;5034490;28;20068;-64
2022/01/14 07:24:02;;;;;;;45.15;18.63;;;6.40;99.90;;;;;;5032201;28;20044;-64
2022/01/14 07:26:28;;;;;;;35.78;18.15;;;6.40;99.90;;;;;;5064263;28;20045;-64
2022/01/14 07:28:54;;;;;;;38.80;17.70;;;6.30;99.90;;;;;;5032133;28;20407;-64
2022/01/14 07:31:19;;;;;;;35.80;18.67;;;6.40;99.90;;;;;;5032040;28;20411;-64
2022/01/14 07:33:45;;;;;;;33.42;18.25;;;6.30;99.90;;;;;;5063737;28;20057;-64
2022/01/14 07:36:10;;;;;;;28.83;16.23;;;6.40;99.90;;;;;;5032003;28;20045;-64
2022/01/14 07:38:36;;;;;;;33.65;17.98;;;6.30;99.90;;;;;;5063337;28;20466;-64
2022/01/14 07:41:02;;;;;;;35.55;19.02;;;6.30;99.90;;;;;;5032160;28;20958;-64
2022/01/14 07:43:28;;;;;;;31.75;17.63;;;6.40;99.90;;;;;;5060627;28;20529;-64
2022/01/14 07:45:54;;;;;;;33.58;17.80;;;6.40;99.90;;;;;;5037186;28;20578;-63
2022/01/14 07:48:20;;;;;;;38.53;19.60;;;6.40;99.90;;;;;;5032188;28;20124;-63
2022/01/14 07:50:45;;;;;;;36.47;18.98;;;6.30;99.90;;;;;;5048416;28;20041;-63
2022/01/14 07:53:11;;;;;;;37.17;18.10;;;6.40;99.90;;;;;;5032047;28;20061;-64
2022/01/14 07:55:37;;;;;;;35.92;17.25;;;6.30;99.90;;;;;;5029948;28;20041;-63
2022/01/14 07:58:03;;;;;;;37.33;18.13;;;;;;;;;;5040478;28;20071;-64
2022/01/14 08:00:30;;;;;;;32.45;17.48;;;;;;;;;;5029714;28;20056;-64
2022/01/14 08:02:56;;;;;;;33.70;18.25;;;;;;;;;;5040329;28;20037;-64
2022/01/14 08:05:23;;;;;;;29.35;16.95;;;;;;;;;;5034646;28;20045;-64
2022/01/14 08:07:52;;;;;;;29.98;16.50;;;;;;;;;;5027783;28;20084;-64
2022/01/14 08:10:18;;;;;;;40.10;18.10;;;;;;;;;;5021103;28;20053;-63
2022/01/14 08:12:46;;;;;;;37.55;17.98;;;;;;;;;;5031465;28;20046;-64
2022/01/14 08:15:12;;;;;;;36.97;15.82;;;;;;;;;;5028366;28;20076;-64
2022/01/14 08:17:38;;;;;;;30.30;16.75;;;;;;;;;;5038017;28;20084;-64
2022/01/14 08:20:05;;;;;;;28.90;17.65;;;6.50;99.90;;;;;;5033970;28;20052;-64
2022/01/14 08:22:31;;;;;;;31.95;17.30;;;;;;;;;;5042959;28;20379;-64
2022/01/14 08:24:58;;;;;;;25.85;17.98;;;6.50;99.90;;;;;;5039314;28;20038;-65
2022/01/14 08:27:26;;;;;;;29.55;16.98;;;6.50;99.90;;;;;;5045299;28;20044;-63
2022/01/14 08:29:52;;;;;;;27.00;15.60;;;;;;;;;;5035880;28;20041;-63
2022/01/14 08:32:18;;;;;;;32.67;14.73;;;;;;;;;;5034344;28;20042;-62
2022/01/14 08:34:43;;;;;;;33.72;15.63;;;6.60;99.90;;;;;;5028624;28;20044;-62
2022/01/14 08:37:09;;;;;;;35.45;13.95;;;6.60;99.90;;;;;;5043132;28;20045;-63
2022/01/14 08:39:35;;;;;;;24.27;15.40;;;;;;;;;;5020834;28;20049;-63
2022/01/14 08:42:03;;;;;;;27.20;14.60;;;;;;;;;;5029110;28;20057;-64
2022/01/14 08:44:29;;;;;;;27.60;13.82;;;6.70;99.90;;;;;;5031059;28;20418;-63
2022/01/14 08:46:55;;;;;;;27.13;12.02;;;6.80;99.90;;;;;;5028141;28;20164;-63
2022/01/14 08:49:21;;;;;;;21.08;12.93;;;6.70;99.90;;;;;;5034374;28;20403;-63
2022/01/14 08:51:47;;;;;;;28.02;12.48;;;6.70;99.90;;;;;;5036044;28;20045;-63
2022/01/14 08:54:13;;;;;;;27.80;12.63;;;6.70;99.90;;;;;;5030793;28;20151;-63
2022/01/14 08:56:39;;;;;;;28.98;12.25;;;6.70;99.90;;;;;;5033373;28;20516;-63
2022/01/14 08:59:05;;;;;;;28.42;12.43;;;6.70;99.90;;;;;;5028808;28;20064;-63
2022/01/14 09:01:31;;;;;;;31.52;12.70;;;6.80;99.90;;;;;;5035379;28;20175;-63
2022/01/14 09:03:57;;;;;;;27.17;13.30;;;6.90;99.90;;;;;;5033940;28;20039;-64
2022/01/14 09:06:23;;;;;;;36.95;15.18;;;6.60;99.90;;;;;;5036156;28;20025;-63
2022/01/14 09:08:49;;;;;;;29.48;13.23;;;;;;;;;;5045984;28;20056;-63
2022/01/14 09:11:15;;;;;;;31.25;12.88;;;;;;;;;;5042660;28;20080;-63
2022/01/14 09:13:41;;;;;;;28.30;12.70;;;6.90;99.90;;;;;;5044889;28;20132;-63
2022/01/14 09:16:06;;;;;;;30.25;11.80;;;6.80;99.90;;;;;;5044744;28;20624;-63
2022/01/14 09:18:32;;;;;;;27.27;12.23;;;6.90;99.90;;;;;;5049029;28;20064;-63
2022/01/14 09:20:58;;;;;;;24.35;11.65;;;;;;;;;;5047773;28;20144;-62
2022/01/14 09:23:25;;;;;;;22.77;11.90;;;;;;;;;;5043868;28;20045;-63
2022/01/14 09:25:52;;;;;;;36.30;12.35;;;;;;;;;;5048709;28;20043;-63
2022/01/14 09:28:18;;;;;;;27.52;12.30;;;;;;;;;;5047313;28;20160;-63
2022/01/14 09:30:44;;;;;;;24.33;11.05;;;;;;;;;;5049550;28;20053;-63
2022/01/14 09:33:10;;;;;;;23.08;11.60;;;;;;;;;;5046316;28;20056;-63
2022/01/14 09:35:37;;;;;;;23.27;11.25;;;7.10;99.90;;;;;;5045275;28;20465;-64
2022/01/14 09:38:03;;;;;;;32.33;11.90;;;7.10;99.90;;;;;;5046254;28;20060;-66
2022/01/14 09:40:29;;;;;;;23.65;10.90;;;7.10;99.90;;;;;;5044585;28;20049;-63
2022/01/14 09:43:01;;;;;;;24.05;10.73;;;;;;;;;;5044667;28;20028;-63
2022/01/14 09:45:31;;;;;;;26.33;11.52;;;7.20;99.90;;;;;;5042420;28;20033;-63
2022/01/14 09:47:56;;;;;;;24.83;10.75;;;7.00;99.90;;;;;;5044756;28;20056;-63
2022/01/14 09:50:23;;;;;;;21.05;11.18;;;7.10;99.90;;;;;;5043051;28;20113;-63
2022/01/14 09:52:54;;;;;;;22.80;11.25;;;;;;;;;;5045517;28;20505;-63
2022/01/14 09:55:21;;;;;;;17.48;10.23;;;7.20;99.90;;;;;;5042542;28;20529;-63
2022/01/14 09:57:46;;;;;;;29.77;11.63;;;7.30;99.90;;;;;;5048853;28;20059;-64
2022/01/14 10:00:13;;;;;;;23.40;9.75;;;;;;;;;;5022818;28;20054;-63
2022/01/14 10:02:40;;;;;;;22.77;9.98;;;;;;;;;;5036831;28;20530;-64
2022/01/14 10:05:07;;;;;;;19.75;8.23;;;;;;;;;;5031949;28;20037;-63
2022/01/14 10:07:33;;;;;;;24.15;9.30;;;7.30;99.90;;;;;;5007801;28;20038;-65
2022/01/14 10:10:01;;;;;;;24.50;10.55;;;;;;;;;;5037673;28;20037;-66
2022/01/14 10:12:31;;;;;;;17.73;8.75;;;7.60;99.90;;;;;;5033040;28;20041;-64
2022/01/14 10:15:00;;;;;;;16.98;7.90;;;7.60;99.90;;;;;;5031397;28;20034;-64
2022/01/14 10:17:38;;;;;;;13.02;7.53;;;7.50;99.90;;;;;;5036832;28;20103;-65
2022/01/14 10:20:05;;;;;;;17.70;8.52;;;7.60;99.90;;;;;;5037755;28;20182;-64
2022/01/14 10:22:33;;;;;;;18.70;7.90;;;7.60;99.90;;;;;;5060272;28;20052;-66
2022/01/14 10:25:13;;;;;;;19.38;7.57;;;7.60;99.90;;;;;;5038708;28;20445;-65
2022/01/14 10:27:42;;;;;;;15.98;7.07;;;7.60;99.90;;;;;;5063232;28;20071;-65
2022/01/14 10:30:09;;;;;;;29.27;10.63;;;7.60;99.90;;;;;;5029887;28;20057;-65
2022/01/14 10:32:37;;;;;;;18.38;7.28;;;7.60;99.90;;;;;;5033815;28;20533;-65
2022/01/14 10:35:12;;;;;;;16.70;6.90;;;7.70;99.90;;;;;;5062598;28;20395;-65
2022/01/14 10:37:37;;;;;;;18.27;7.38;;;7.80;99.90;;;;;;5030677;28;20049;-65
2022/01/14 10:40:06;;;;;;;21.30;7.13;;;7.70;99.90;;;;;;5034609;28;20157;-64
2022/01/14 10:42:34;;;;;;;18.33;8.10;;;7.60;99.90;;;;;;5029004;28;20566;-64
2022/01/14 10:45:27;;;;;;;16.65;7.13;;;8.00;99.90;;;;;;5032583;28;20044;-65
2022/01/14 10:48:10;;;;;;;16.10;6.00;;;7.80;99.90;;;;;;5014904;28;20042;-62
2022/01/14 10:50:54;;;;;;;19.55;6.80;;;7.80;99.90;;;;;;5025450;28;20120;-63
2022/01/14 10:53:25;;;;;;;15.00;6.65;;;7.70;99.90;;;;;;5035541;28;20135;-63
2022/01/14 10:55:53;;;;;;;18.38;6.40;;;7.80;99.90;;;;;;5036816;28;20110;-63
2022/01/14 10:58:27;;;;;;;14.95;6.45;;;;;;;;;;5013207;28;20483;-63
2022/01/14 11:01:03;;;;;;;15.27;6.32;;;7.90;99.90;;;;;;5041219;28;20052;-62
2022/01/14 11:03:32;;;;;;;13.45;5.60;;;;;;;;;;5033717;28;20123;-63
2022/01/14 11:06:22;;;;;;;14.68;6.00;;;7.90;99.90;;;;;;5031009;28;20077;-64
2022/01/14 11:08:54;;;;;;;9.57;5.63;;;7.90;99.90;;;;;;5018333;28;20049;-63
2022/01/14 11:11:20;;;;;;;11.45;5.72;;;;;;;;;;5032800;28;20437;-63
2022/01/14 11:13:46;;;;;;;11.63;4.97;;;8.10;99.90;;;;;;5033347;28;20114;-63
2022/01/14 11:16:12;;;;;;;14.95;5.43;;;8.00;99.90;;;;;;5035558;28;20049;-64
2022/01/14 11:18:38;;;;;;;12.25;5.50;;;8.20;99.90;;;;;;5030775;28;20034;-64
2022/01/14 11:23:49;;;;;;;15.40;5.82;;;;;;;;;;5035927;28;20041;-63
2022/01/14 11:26:19;;;;;;;12.98;5.32;;;;;;;;;;5033007;28;20080;-64
2022/01/14 11:28:45;;;;;;;14.45;4.75;;;7.90;99.90;;;;;;5057743;28;20080;-64
2022/01/14 11:31:30;;;;;;;15.38;5.10;;;7.90;99.90;;;;;;5042419;28;20737;-64
2022/01/14 11:33:59;;;;;;;19.20;5.22;;;7.80;99.90;;;;;;5029827;28;20124;-65
2022/01/14 11:36:45;;;;;;;15.98;4.70;;;7.80;99.90;;;;;;5060154;28;20164;-64
2022/01/14 11:39:22;;;;;;;10.48;6.45;;;7.70;99.90;;;;;;5029360;28;20057;-64
2022/01/14 11:41:58;;;;;;;14.75;4.15;;;7.90;99.90;;;;;;5030792;28;20068;-63
2022/01/14 11:44:43;;;;;;;11.15;3.35;;;7.90;99.90;;;;;;5029957;28;20537;-64
2022/01/14 11:47:24;;;;;;;11.85;4.97;;;7.80;99.90;;;;;;5011262;28;20060;-65
2022/01/14 11:49:51;;;;;;;14.50;4.28;;;;;;;;;;5014102;28;20056;-64
2022/01/14 11:52:36;;;;;;;13.70;4.28;;;7.80;99.90;;;;;;5032828;28;20487;-63
2022/01/14 11:55:04;;;;;;;15.68;4.80;;;7.80;99.90;;;;;;5028310;28;20041;-63
2022/01/14 11:57:39;;;;;;;15.93;4.40;;;;;;;;;;5028443;28;20092;-63
2022/01/14 12:00:25;;;;;;;12.63;4.53;;;7.80;99.90;;;;;;5059885;28;20049;-63
2022/01/14 12:02:50;;;;;;;;;;;;;;;;;;5028263;28;20539;-63
2022/01/14 12:05:19;;;;;;;15.30;4.32;;;7.70;99.90;;;;;;5033656;28;19917;-63
2022/01/14 12:08:11;;;;;;;14.13;4.43;;;7.90;99.90;;;;;;5033603;28;20060;-62
2022/01/14 12:10:46;;;;;;;12.93;4.65;;;7.70;99.90;;;;;;5028330;28;20096;-62
2022/01/14 12:16:03;;;;;;;13.48;4.93;;;7.70;99.90;;;;;;5038236;28;20041;-62
2022/01/14 12:19:04;;;;;;;11.75;4.18;;;7.90;99.90;;;;;;5042371;28;20048;-62
2022/01/14 12:21:44;;;;;;;11.55;5.20;;;7.80;99.90;;;;;;5039197;28;20041;-62
2022/01/14 12:24:19;;;;;;;10.57;4.50;;;7.80;99.90;;;;;;5040543;28;20045;-62
2022/01/14 12:27:11;;;;;;;14.27;4.77;;;7.80;99.90;;;;;;5040991;28;20106;-63
2022/01/14 12:29:49;;;;;;;16.00;4.55;;;7.90;99.90;;;;;;5035907;28;20053;-63
2022/01/14 12:32:42;;;;;;;17.73;5.07;;;7.80;99.90;;;;;;5032192;28;20087;-63
2022/01/14 12:35:12;;;;;;;12.50;4.70;;;7.90;99.90;;;;;;5043085;28;20053;-63
2022/01/14 12:37:41;;;;;;;17.17;5.10;;;7.70;99.90;;;;;;5038889;28;20454;-63
2022/01/14 12:40:10;;;;;;;16.67;4.50;;;7.80;99.90;;;;;;5027653;28;20084;-64
2022/01/14 12:42:36;;;;;;;15.98;4.57;;;7.80;99.90;;;;;;5035247;28;20503;-62
2022/01/14 12:45:05;;;;;;;14.60;4.03;;;7.80;99.90;;;;;;5029389;28;20072;-63
2022/01/14 12:47:34;;;;;;;13.82;4.10;;;7.70;99.90;;;;;;5054622;28;20041;-64
2022/01/14 12:50:09;;;;;;;8.77;4.07;;;7.80;99.90;;;;;;5039974;28;20037;-62
2022/01/14 12:52:45;;;;;;;11.52;5.07;;;;;;;;;;5050105;28;20032;-65
2022/01/14 12:55:11;;;;;;;10.98;4.30;;;7.80;99.90;;;;;;5042131;28;20156;-62
2022/01/14 12:57:37;;;;;;;23.33;5.18;;;7.80;99.90;;;;;;5048232;28;20124;-63
2022/01/14 13:00:06;;;;;;;13.70;5.25;;;8.00;99.90;;;;;;5047217;28;20059;-65
2022/01/14 13:02:32;;;;;;;12.18;5.60;;;7.80;99.90;;;;;;5048593;28;20132;-64
2022/01/14 13:05:06;;;;;;;13.18;4.93;;;7.90;99.90;;;;;;5045672;28;20137;-64
2022/01/14 13:07:32;;;;;;;12.13;4.80;;;;;;;;;;5041192;28;20051;-64
2022/01/14 13:09:58;;;;;;;18.02;4.22;;;;;;;;;;5034012;28;20147;-64
2022/01/14 13:12:30;;;;;;;12.77;4.57;;;;;;;;;;5044496;28;20049;-64
2022/01/14 13:15:01;;;;;;;12.93;4.78;;;;;;;;;;5031830;28;20071;-64
2022/01/14 13:17:58;;;;;;;15.07;5.63;;;8.10;99.90;;;;;;5039106;28;21926;-63
2022/01/14 13:20:24;;;;;;;12.95;4.70;;;8.10;99.90;;;;;;5025108;28;20064;-64
2022/01/14 13:22:51;;;;;;;12.68;4.40;;;;;;;;;;5040152;28;20102;-62
2022/01/14 13:25:20;;;;;;;12.95;4.88;;;7.90;99.90;;;;;;5033585;28;20111;-62
2022/01/14 13:27:58;;;;;;;17.88;5.20;;;7.80;99.90;;;;;;5037551;28;20069;-61
2022/01/14 13:30:28;;;;;;;17.42;4.60;;;7.80;99.90;;;;;;5033144;28;20124;-62
2022/01/14 13:32:59;;;;;;;14.57;4.03;;;7.90;99.90;;;;;;5036570;28;20280;-61
2022/01/14 13:35:33;;;;;;;20.20;4.95;;;7.80;99.90;;;;;;5031489;28;20477;-62